createdAt,value
2023-04-15T00:01:53.686Z,8.68
2023-04-15T00:04:20.827Z,10.05
2023-04-15T00:06:55.304Z,8.35
2023-04-15T00:09:22.261Z,7.45
2023-04-15T00:11:50.667Z,9.00
2023-04-15T00:14:17.478Z,9.85
2023-04-15T00:16:44.559Z,12.25
2023-04-15T00:19:12.297Z,7.20
2023-04-15T00:21:39.036Z,9.43
2023-04-15T00:24:06.468Z,10.63
2023-04-15T00:26:33.252Z,6.95
2023-04-15T00:29:00.574Z,11.48
2023-04-15T00:31:27.858Z,12.43
2023-04-15T00:33:54.755Z,12.02
2023-04-15T00:36:22.336Z,7.25
2023-04-15T00:38:50.720Z,10.02
2023-04-15T00:41:19.221Z,11.38
2023-04-15T00:43:46.599Z,8.98
2023-04-15T00:46:16.001Z,9.25
2023-04-15T00:48:44.153Z,6.55
2023-04-15T00:51:11.298Z,6.93
2023-04-15T00:53:38.046Z,7.78
2023-04-15T00:56:06.684Z,6.35
2023-04-15T00:58:33.555Z,7.80
2023-04-15T01:01:01.187Z,6.35
2023-04-15T01:03:32.220Z,8.00
2023-04-15T01:06:03.392Z,6.57
2023-04-15T01:08:31.756Z,9.18
2023-04-15T01:11:03.523Z,6.45
2023-04-15T01:13:31.255Z,6.32
2023-04-15T01:15:58.291Z,5.65
2023-04-15T01:18:25.621Z,7.72
2023-04-15T01:20:52.373Z,10.50
2023-04-15T01:23:19.262Z,8.88
2023-04-15T01:25:47.586Z,7.18
2023-04-15T01:28:14.505Z,6.78
2023-04-15T01:30:41.477Z,8.27
2023-04-15T01:33:08.576Z,5.28
2023-04-15T01:35:35.496Z,6.80
2023-04-15T01:38:06.569Z,6.07
2023-04-15T01:40:36.721Z,7.00
2023-04-15T01:43:03.937Z,10.90
2023-04-15T01:45:31.268Z,6.75
2023-04-15T01:47:58.153Z,7.72
2023-04-15T01:50:26.191Z,5.90
2023-04-15T01:52:55.499Z,6.20
2023-04-15T01:55:22.374Z,8.40
2023-04-15T01:57:49.258Z,7.60
2023-04-15T02:00:17.658Z,7.85
2023-04-15T02:02:44.907Z,7.30
2023-04-15T02:05:12.075Z,4.63
2023-04-15T02:07:38.833Z,8.93
2023-04-15T02:10:05.898Z,7.57
2023-04-15T02:12:35.747Z,5.32
2023-04-15T02:15:02.616Z,5.63
2023-04-15T02:17:29.505Z,10.95
2023-04-15T02:19:56.891Z,5.93
2023-04-15T02:22:24.909Z,7.03
2023-04-15T02:24:51.857Z,9.52
2023-04-15T02:27:18.889Z,10.35
2023-04-15T02:29:46.231Z,7.57
2023-04-15T02:32:13.877Z,6.75
2023-04-15T02:34:42.658Z,6.15
2023-04-15T02:37:11.413Z,5.75
2023-04-15T02:39:38.344Z,6.28
2023-04-15T02:42:06.184Z,7.65
2023-04-15T02:44:35.275Z,5.25
2023-04-15T02:47:05.108Z,5.45
2023-04-15T02:49:32.469Z,7.18
2023-04-15T02:52:00.775Z,11.73
2023-04-15T02:54:30.626Z,12.02
2023-04-15T02:56:58.101Z,9.02
2023-04-15T02:59:25.059Z,8.65
2023-04-15T03:01:51.914Z,5.15
2023-04-15T03:04:18.893Z,9.20
2023-04-15T03:06:47.006Z,6.93
2023-04-15T03:09:13.919Z,4.53
2023-04-15T03:11:42.147Z,8.90
2023-04-15T03:14:11.333Z,8.30
2023-04-15T03:16:42.584Z,9.32
2023-04-15T03:19:09.727Z,5.53
2023-04-15T03:21:40.473Z,6.13
2023-04-15T03:24:08.665Z,10.68
2023-04-15T03:26:35.701Z,9.70
2023-04-15T03:29:08.992Z,9.85
2023-04-15T03:31:35.873Z,6.50
2023-04-15T03:34:02.755Z,6.57
2023-04-15T03:36:32.139Z,6.15
2023-04-15T03:38:59.916Z,7.20
2023-04-15T03:41:26.791Z,8.18
2023-04-15T03:43:53.986Z,6.43
2023-04-15T03:46:21.414Z,6.53
2023-04-15T03:48:48.620Z,6.80
2023-04-15T03:51:15.501Z,9.90
2023-04-15T03:53:42.340Z,7.35
2023-04-15T03:56:09.166Z,5.55
2023-04-15T03:58:36.004Z,11.00
2023-04-15T04:01:02.830Z,6.78
2023-04-15T04:03:30.376Z,8.10
2023-04-15T04:05:57.355Z,9.45
2023-04-15T04:08:24.310Z,6.07
2023-04-15T04:10:51.211Z,7.32
2023-04-15T04:13:18.206Z,5.88
2023-04-15T04:15:45.263Z,6.07
2023-04-15T04:18:12.476Z,6.95
2023-04-15T04:20:39.447Z,6.28
2023-04-15T04:23:06.556Z,7.40
2023-04-15T04:25:33.465Z,7.10
2023-04-15T04:28:00.325Z,7.68
2023-04-15T04:30:27.174Z,5.28
2023-04-15T04:32:54.160Z,13.02
2023-04-15T04:35:21.919Z,10.95
2023-04-15T04:37:48.942Z,9.52
2023-04-15T04:40:16.228Z,6.93
2023-04-15T04:42:43.478Z,9.07
2023-04-15T04:45:10.795Z,6.30
2023-04-15T04:47:37.808Z,6.93
2023-04-15T04:50:05.033Z,6.43
2023-04-15T04:52:32.003Z,5.72
2023-04-15T04:54:58.907Z,5.18
2023-04-15T04:57:25.685Z,5.32
2023-04-15T04:59:52.628Z,5.97
2023-04-15T05:02:19.703Z,5.13
2023-04-15T05:04:49.748Z,6.90
2023-04-15T05:07:17.177Z,5.25
2023-04-15T05:09:43.914Z,6.10
2023-04-15T05:12:15.035Z,7.43
2023-04-15T05:14:42.511Z,6.05
2023-04-15T05:17:09.439Z,6.43
2023-04-15T05:19:36.740Z,4.82
2023-04-15T05:22:03.889Z,4.82
2023-04-15T05:24:31.041Z,6.63
2023-04-15T05:26:57.936Z,4.07
2023-04-15T05:29:24.706Z,6.57
2023-04-15T05:31:52.102Z,6.13
2023-04-15T05:34:19.904Z,3.85
2023-04-15T05:36:47.199Z,3.05
2023-04-15T05:39:14.046Z,4.57
2023-04-15T05:41:41.001Z,4.20
2023-04-15T05:44:07.929Z,8.27
2023-04-15T05:46:34.748Z,7.75
2023-04-15T05:49:02.037Z,7.70
2023-04-15T05:51:29.053Z,13.80
2023-04-15T05:53:55.830Z,7.13
2023-04-15T05:56:22.714Z,10.18
2023-04-15T05:58:50.578Z,13.18
2023-04-15T06:01:19.340Z,4.65
2023-04-15T06:03:46.919Z,5.25
2023-04-15T06:06:14.417Z,9.85
2023-04-15T06:08:41.586Z,7.85
2023-04-15T06:11:08.568Z,8.05
2023-04-15T06:13:37.762Z,7.22
2023-04-15T06:16:04.841Z,4.85
2023-04-15T06:18:31.632Z,10.15
2023-04-15T06:20:58.531Z,7.05
2023-04-15T06:23:26.932Z,8.23
2023-04-15T06:25:54.810Z,5.15
2023-04-15T06:28:21.820Z,2.95
2023-04-15T06:30:48.696Z,5.88
2023-04-15T06:33:15.986Z,6.40
2023-04-15T06:35:43.088Z,4.55
2023-04-15T06:38:09.859Z,4.63
2023-04-15T06:40:36.816Z,6.65
2023-04-15T06:43:04.852Z,7.80
2023-04-15T06:45:32.413Z,8.57
2023-04-15T06:47:59.541Z,7.18
2023-04-15T06:50:26.539Z,5.93
2023-04-15T06:52:54.596Z,6.85
2023-04-15T06:55:21.476Z,5.00
2023-04-15T06:57:48.590Z,5.50
2023-04-15T07:00:15.695Z,4.90
2023-04-15T07:02:42.708Z,7.13
2023-04-15T07:05:10.053Z,3.88
2023-04-15T07:07:37.517Z,2.53
2023-04-15T07:10:05.419Z,3.53
2023-04-15T07:12:32.487Z,6.05
2023-04-15T07:14:59.724Z,3.97
2023-04-15T07:17:27.217Z,5.45
2023-04-15T07:19:54.257Z,2.55
2023-04-15T07:22:21.034Z,2.40
2023-04-15T07:24:47.873Z,4.25
2023-04-15T07:27:14.803Z,3.97
2023-04-15T07:29:42.174Z,4.35
2023-04-15T07:32:10.498Z,3.45
2023-04-15T07:34:38.033Z,2.90
2023-04-15T07:37:04.980Z,3.15
2023-04-15T07:39:31.750Z,2.67
2023-04-15T07:41:59.218Z,2.40
2023-04-15T07:44:27.444Z,3.95
2023-04-15T07:46:54.674Z,4.47
2023-04-15T07:49:21.592Z,4.07
2023-04-15T07:51:49.154Z,3.45
2023-04-15T07:54:16.291Z,3.90
2023-04-15T07:56:43.087Z,3.60
2023-04-15T07:59:10.437Z,2.63
2023-04-15T08:01:37.773Z,3.53
2023-04-15T08:04:04.738Z,3.67
2023-04-15T08:06:31.598Z,3.72
2023-04-15T08:08:58.419Z,3.35
2023-04-15T08:11:25.512Z,3.80
2023-04-15T08:13:52.772Z,3.13
2023-04-15T08:16:27.868Z,4.35
2023-04-15T08:18:56.423Z,2.47
2023-04-15T08:21:23.958Z,2.72
2023-04-15T08:23:52.417Z,3.80
2023-04-15T08:26:21.103Z,3.00
2023-04-15T08:28:48.869Z,2.60
2023-04-15T08:31:16.930Z,4.03
2023-04-15T08:33:43.886Z,1.70
2023-04-15T08:36:10.747Z,2.60
2023-04-15T08:38:38.091Z,2.88
2023-04-15T08:41:13.268Z,4.47
2023-04-15T08:43:48.580Z,2.53
2023-04-15T08:46:16.590Z,2.50
2023-04-15T08:48:44.728Z,3.33
2023-04-15T08:51:11.730Z,4.53
2023-04-15T08:53:38.744Z,2.78
2023-04-15T08:56:10.094Z,4.20
2023-04-15T08:58:38.099Z,4.05
2023-04-15T09:01:05.075Z,3.30
2023-04-15T09:03:32.514Z,2.28
2023-04-15T09:05:59.977Z,5.53
2023-04-15T09:08:26.992Z,3.10
2023-04-15T09:10:54.583Z,2.33
2023-04-15T09:13:21.995Z,2.35
2023-04-15T09:15:49.197Z,2.63
2023-04-15T09:18:29.272Z,4.00
2023-04-15T09:20:56.657Z,4.13
2023-04-15T09:23:23.572Z,4.55
2023-04-15T09:25:51.195Z,2.63
2023-04-15T09:28:25.656Z,2.15
2023-04-15T09:30:56.710Z,4.90
2023-04-15T09:33:24.821Z,2.90
2023-04-15T09:35:59.451Z,9.63
2023-04-15T09:38:26.661Z,2.95
2023-04-15T09:40:53.537Z,2.88
2023-04-15T09:43:20.965Z,2.95
2023-04-15T09:45:53.232Z,2.95
2023-04-15T09:48:22.839Z,4.82
2023-04-15T09:50:50.360Z,4.43
2023-04-15T09:53:19.378Z,2.95
2023-04-15T09:55:59.048Z,3.38
2023-04-15T09:58:33.805Z,2.20
2023-04-15T10:01:03.045Z,2.55
2023-04-15T10:03:32.373Z,3.42
2023-04-15T10:06:00.995Z,3.05
2023-04-15T10:08:33.189Z,4.47
2023-04-15T10:11:05.058Z,1.80
2023-04-15T10:13:37.237Z,4.70
2023-04-15T10:16:11.296Z,2.72
2023-04-15T10:19:02.497Z,3.03
2023-04-15T10:21:30.813Z,3.03
2023-04-15T10:23:58.925Z,3.35
2023-04-15T10:26:26.612Z,1.58
2023-04-15T10:28:53.731Z,2.38
2023-04-15T10:31:21.626Z,2.42
2023-04-15T10:33:49.828Z,4.38
2023-04-15T10:36:18.905Z,2.75
2023-04-15T10:38:46.819Z,6.55
2023-04-15T10:41:24.895Z,2.55
2023-04-15T10:44:05.764Z,3.67
2023-04-15T10:46:45.971Z,2.88
2023-04-15T10:49:17.794Z,4.25
2023-04-15T10:51:50.960Z,3.40
2023-04-15T10:54:31.087Z,2.65
2023-04-15T10:57:03.566Z,3.83
2023-04-15T10:59:36.189Z,2.22
2023-04-15T11:02:05.953Z,1.95
2023-04-15T11:04:51.867Z,2.85
2023-04-15T11:07:40.062Z,3.88
2023-04-15T11:10:26.130Z,4.10
2023-04-15T11:12:56.964Z,3.13
2023-04-15T11:15:31.127Z,2.20
2023-04-15T11:17:59.923Z,2.75
2023-04-15T11:20:27.230Z,1.83
2023-04-15T11:23:12.140Z,2.17
2023-04-15T11:25:43.290Z,3.65
2023-04-15T11:28:12.244Z,3.15
2023-04-15T11:30:40.242Z,3.13
2023-04-15T11:33:09.594Z,2.42
2023-04-15T11:35:36.781Z,4.15
2023-04-15T11:38:12.089Z,3.55
2023-04-15T11:40:39.622Z,2.47
2023-04-15T11:43:10.270Z,3.17
2023-04-15T11:45:47.893Z,4.85
2023-04-15T11:48:14.744Z,5.63
2023-04-15T11:50:41.664Z,4.30
2023-04-15T11:53:11.659Z,3.50
2023-04-15T11:55:48.904Z,2.75
2023-04-15T11:58:18.563Z,3.40
2023-04-15T12:00:54.015Z,4.10
2023-04-15T12:03:23.847Z,1.65
2023-04-15T12:06:20.881Z,3.25
2023-04-15T12:09:13.418Z,4.38
2023-04-15T12:11:45.876Z,3.22
2023-04-15T12:14:34.686Z,4.30
2023-04-15T12:17:03.640Z,1.67
2023-04-15T12:19:42.163Z,3.15
2023-04-15T12:22:14.155Z,2.15
2023-04-15T12:24:44.247Z,2.35
2023-04-15T12:27:12.825Z,0.93
2023-04-15T12:29:41.119Z,5.28
2023-04-15T12:32:12.350Z,3.10
2023-04-15T12:34:45.130Z,3.60
2023-04-15T12:37:14.218Z,4.93
2023-04-15T12:39:44.616Z,2.40
2023-04-15T12:42:12.390Z,3.50
2023-04-15T12:44:40.118Z,2.25
2023-04-15T12:47:08.174Z,5.15
2023-04-15T12:49:35.142Z,4.53
2023-04-15T12:52:03.234Z,5.35
2023-04-15T12:54:33.031Z,4.65
2023-04-15T12:57:00.915Z,3.97
2023-04-15T12:59:28.228Z,3.90
2023-04-15T13:01:55.627Z,7.07
2023-04-15T13:04:23.046Z,3.22
2023-04-15T13:06:50.508Z,4.55
2023-04-15T13:09:17.376Z,3.60
2023-04-15T13:11:44.310Z,2.67
2023-04-15T13:14:13.089Z,3.03
2023-04-15T13:16:40.318Z,5.25
2023-04-15T13:19:07.479Z,4.35
2023-04-15T13:21:35.785Z,2.45
2023-04-15T13:24:04.549Z,4.13
2023-04-15T13:26:32.097Z,4.18
2023-04-15T13:28:59.506Z,12.90
2023-04-15T13:31:27.096Z,2.90
2023-04-15T13:33:54.101Z,4.70
2023-04-15T13:36:21.132Z,5.85
2023-04-15T13:38:50.960Z,4.18
2023-04-15T13:41:18.462Z,2.80
2023-04-15T13:43:45.691Z,4.10
2023-04-15T13:46:12.890Z,12.10
2023-04-15T13:48:39.772Z,4.25
2023-04-15T13:51:06.656Z,4.93
2023-04-15T13:53:38.213Z,2.60
2023-04-15T13:56:09.256Z,4.18
2023-04-15T13:58:37.481Z,4.15
2023-04-15T14:01:06.146Z,2.33
2023-04-15T14:03:34.980Z,4.38
2023-04-15T14:06:02.314Z,3.08
2023-04-15T14:08:31.080Z,2.33
2023-04-15T14:10:57.975Z,2.03
2023-04-15T14:13:25.116Z,3.75
2023-04-15T14:15:51.915Z,3.13
2023-04-15T14:18:18.862Z,6.95
2023-04-15T14:20:46.207Z,2.65
2023-04-15T14:23:13.083Z,2.00
2023-04-15T14:25:40.383Z,3.63
2023-04-15T14:28:07.248Z,5.15
2023-04-15T14:30:34.217Z,4.18
2023-04-15T14:33:01.202Z,3.88
2023-04-15T14:35:29.123Z,3.45
2023-04-15T14:37:56.302Z,3.40
2023-04-15T14:40:23.628Z,2.85
2023-04-15T14:42:50.633Z,4.22
2023-04-15T14:45:17.912Z,3.80
2023-04-15T14:47:45.095Z,3.53
2023-04-15T14:50:12.834Z,2.72
2023-04-15T14:52:40.069Z,1.77
2023-04-15T14:55:10.820Z,3.42
2023-04-15T14:57:38.680Z,1.77
2023-04-15T15:00:07.306Z,3.53
2023-04-15T15:02:39.183Z,2.38
2023-04-15T15:05:07.602Z,2.25
2023-04-15T15:07:36.051Z,2.72
2023-04-15T15:10:02.949Z,3.80
2023-04-15T15:12:29.734Z,4.93
2023-04-15T15:14:56.758Z,2.58
2023-04-15T15:17:24.059Z,2.75
2023-04-15T15:19:51.114Z,3.28
2023-04-15T15:22:20.149Z,2.97
2023-04-15T15:24:48.541Z,3.75
2023-04-15T15:27:15.784Z,6.07
2023-04-15T15:29:42.758Z,2.88
2023-04-15T15:32:12.765Z,3.25
2023-04-15T15:34:39.714Z,4.57
2023-04-15T15:37:07.163Z,2.60
2023-04-15T15:39:36.057Z,2.22
2023-04-15T15:42:03.059Z,2.70
2023-04-15T15:44:29.899Z,2.45
2023-04-15T15:46:56.854Z,2.90
2023-04-15T15:49:25.888Z,6.32
2023-04-15T15:51:52.736Z,2.83
2023-04-15T15:54:19.717Z,1.92
2023-04-15T15:56:46.456Z,3.28
2023-04-15T15:59:13.741Z,4.53
2023-04-15T16:01:40.630Z,4.60
2023-04-15T16:04:07.698Z,3.88
2023-04-15T16:06:35.322Z,3.30
2023-04-15T16:09:02.513Z,2.65
2023-04-15T16:11:30.242Z,6.07
2023-04-15T16:13:57.515Z,4.82
2023-04-15T16:16:24.651Z,6.13
2023-04-15T16:18:51.552Z,4.15
2023-04-15T16:21:19.514Z,5.85
2023-04-15T16:23:46.775Z,6.07
2023-04-15T16:26:15.056Z,4.57
2023-04-15T16:28:41.980Z,5.32
2023-04-15T16:31:10.835Z,4.30
2023-04-15T16:33:42.002Z,5.30
2023-04-15T16:36:08.743Z,5.63
2023-04-15T16:38:35.643Z,4.40
2023-04-15T16:41:02.551Z,3.75
2023-04-15T16:43:30.099Z,5.55
2023-04-15T16:45:56.978Z,3.90
2023-04-15T16:48:23.912Z,5.07
2023-04-15T16:50:50.948Z,4.60
2023-04-15T16:53:17.891Z,7.43
2023-04-15T16:55:44.640Z,3.75
2023-04-15T16:58:11.566Z,3.72
2023-04-15T17:00:38.467Z,3.45
2023-04-15T17:03:06.242Z,6.60
2023-04-15T17:05:33.564Z,5.80
2023-04-15T17:08:00.621Z,6.30
2023-04-15T17:10:28.057Z,6.50
2023-04-15T17:12:59.094Z,6.03
2023-04-15T17:15:27.242Z,7.35
2023-04-15T17:17:54.502Z,11.10
2023-04-15T17:20:21.736Z,8.82
2023-04-15T17:22:49.085Z,6.20
2023-04-15T17:25:16.127Z,5.63
2023-04-15T17:27:43.022Z,10.23
2023-04-15T17:30:10.089Z,4.50
2023-04-15T17:32:40.329Z,4.60
2023-04-15T17:35:07.793Z,7.22
2023-04-15T17:37:34.654Z,6.95
2023-04-15T17:40:02.278Z,6.00
2023-04-15T17:42:29.178Z,4.28
2023-04-15T17:44:56.040Z,10.20
2023-04-15T17:47:23.194Z,4.03
2023-04-15T17:49:50.046Z,4.53
2023-04-15T17:52:16.843Z,7.15
2023-04-15T17:54:43.677Z,6.43
2023-04-15T17:57:10.769Z,8.45
2023-04-15T17:59:37.890Z,8.00
2023-04-15T18:02:04.845Z,5.82
2023-04-15T18:04:31.815Z,4.95
2023-04-15T18:06:58.892Z,6.30
2023-04-15T18:09:26.887Z,6.88
2023-04-15T18:11:53.649Z,9.05
2023-04-15T18:14:33.370Z,7.07
2023-04-15T18:17:01.500Z,5.47
2023-04-15T18:19:28.389Z,6.43
2023-04-15T18:21:56.308Z,10.30
2023-04-15T18:24:23.242Z,6.30
2023-04-15T18:26:52.727Z,5.60
2023-04-15T18:29:19.682Z,8.40
2023-04-15T18:31:46.469Z,6.32
2023-04-15T18:34:13.647Z,6.93
2023-04-15T18:36:40.432Z,7.82
2023-04-15T18:39:07.407Z,5.90
2023-04-15T18:41:34.512Z,5.63
2023-04-15T18:44:01.607Z,7.90
2023-04-15T18:46:29.050Z,6.15
2023-04-15T18:48:55.874Z,8.40
2023-04-15T18:51:22.725Z,6.35
2023-04-15T18:53:49.542Z,5.00
2023-04-15T18:56:16.512Z,5.13
2023-04-15T18:59:19.417Z,6.00
2023-04-15T19:01:32.033Z,6.45
2023-04-15T19:03:59.473Z,5.22
2023-04-15T19:06:27.241Z,4.28
2023-04-15T19:08:55.109Z,4.13
2023-04-15T19:11:21.981Z,4.13
2023-04-15T19:13:49.094Z,5.45
2023-04-15T19:16:16.103Z,6.32
2023-04-15T19:18:43.207Z,3.67
2023-04-15T19:21:11.476Z,6.15
2023-04-15T19:23:38.875Z,4.38
2023-04-15T19:26:08.179Z,4.05
2023-04-15T19:28:35.102Z,4.88
2023-04-15T19:31:02.225Z,5.45
2023-04-15T19:33:31.503Z,4.53
2023-04-15T19:36:04.162Z,5.28
2023-04-15T19:38:31.682Z,5.57
2023-04-15T19:40:59.141Z,6.32
2023-04-15T19:43:26.349Z,5.47
2023-04-15T19:45:54.793Z,5.55
2023-04-15T19:48:22.971Z,4.03
2023-04-15T19:50:50.108Z,5.45
2023-04-15T19:53:17.118Z,4.60
2023-04-15T19:55:44.180Z,4.07
2023-04-15T19:58:11.353Z,4.88
2023-04-15T20:00:38.369Z,4.90
2023-04-15T20:03:05.817Z,4.97
2023-04-15T20:05:32.874Z,6.97
2023-04-15T20:08:01.586Z,5.85
2023-04-15T20:10:28.792Z,6.00
2023-04-15T20:12:55.695Z,7.97
2023-04-15T20:15:23.946Z,5.25
2023-04-15T20:17:51.324Z,5.75
2023-04-15T20:20:18.964Z,8.60
2023-04-15T20:22:45.827Z,8.88
2023-04-15T20:25:12.977Z,7.20
2023-04-15T20:27:39.834Z,5.88
2023-04-15T20:30:07.428Z,7.30
2023-04-15T20:32:36.033Z,6.72
2023-04-15T20:35:07.325Z,4.35
2023-04-15T20:37:34.687Z,5.93
2023-04-15T20:40:02.356Z,8.02
2023-04-15T20:42:34.292Z,6.03
2023-04-15T20:45:01.297Z,5.10
2023-04-15T20:47:28.429Z,6.18
2023-04-15T20:49:55.486Z,5.13
2023-04-15T20:52:22.263Z,6.15
2023-04-15T20:54:49.504Z,5.18
2023-04-15T20:57:16.912Z,8.15
2023-04-15T20:59:43.843Z,5.28
2023-04-15T21:02:11.226Z,5.70
2023-04-15T21:04:38.922Z,7.07
2023-04-15T21:07:06.063Z,7.75
2023-04-15T21:09:32.893Z,6.13
2023-04-15T21:12:01.159Z,7.40
2023-04-15T21:14:29.387Z,6.57
2023-04-15T21:16:58.024Z,6.80
2023-04-15T21:19:25.224Z,6.60
2023-04-15T21:21:52.495Z,6.03
2023-04-15T21:24:19.758Z,7.10
2023-04-15T21:26:46.639Z,4.95
2023-04-15T21:29:14.007Z,3.67
2023-04-15T21:31:41.129Z,4.70
2023-04-15T21:34:08.191Z,3.03
2023-04-15T21:36:35.462Z,3.03
2023-04-15T21:39:02.557Z,2.67
2023-04-15T21:41:30.023Z,3.63
2023-04-15T21:43:56.964Z,2.90
2023-04-15T21:46:25.729Z,3.05
2023-04-15T21:49:00.201Z,2.75
2023-04-15T21:51:27.668Z,3.75
2023-04-15T21:53:54.548Z,2.88
2023-04-15T21:56:23.193Z,2.85
2023-04-15T21:58:50.419Z,3.17
2023-04-15T22:01:17.830Z,4.55
2023-04-15T22:03:44.872Z,5.43
2023-04-15T22:06:13.613Z,4.95
2023-04-15T22:08:55.006Z,4.38
2023-04-15T22:11:27.214Z,4.30
2023-04-15T22:13:54.714Z,4.13
2023-04-15T22:16:21.709Z,4.97
2023-04-15T22:18:48.880Z,4.30
2023-04-15T22:21:15.940Z,4.68
2023-04-15T22:23:46.287Z,4.75
2023-04-15T22:26:13.098Z,5.53
2023-04-15T22:28:39.867Z,4.32
2023-04-15T22:31:06.641Z,4.93
2023-04-15T22:33:33.803Z,4.70
2023-04-15T22:36:00.621Z,4.70
2023-04-15T22:38:27.488Z,5.47
2023-04-15T22:40:54.442Z,4.57
2023-04-15T22:43:21.235Z,4.97
2023-04-15T22:45:51.544Z,5.13
2023-04-15T22:48:19.048Z,5.53
2023-04-15T22:50:46.231Z,5.38
2023-04-15T22:53:13.240Z,5.07
2023-04-15T22:55:40.088Z,5.95
2023-04-15T22:58:06.882Z,5.85
2023-04-15T23:00:33.619Z,4.68
2023-04-15T23:03:00.714Z,6.47
2023-04-15T23:05:27.867Z,6.35
2023-04-15T23:07:54.897Z,6.32
2023-04-15T23:10:21.772Z,6.22
2023-04-15T23:12:48.592Z,7.38
2023-04-15T23:15:15.774Z,6.22
2023-04-15T23:17:43.528Z,6.60
2023-04-15T23:20:11.434Z,6.88
2023-04-15T23:22:38.654Z,6.93
2023-04-15T23:25:06.557Z,8.95
2023-04-15T23:27:33.338Z,8.07
2023-04-15T23:30:00.296Z,10.57
2023-04-15T23:32:27.457Z,9.18
2023-04-15T23:34:54.524Z,10.07
2023-04-15T23:37:21.373Z,10.13
2023-04-15T23:39:48.423Z,9.07
2023-04-15T23:42:15.286Z,10.02
2023-04-15T23:44:42.058Z,9.05
2023-04-15T23:47:09.008Z,9.98
2023-04-15T23:49:37.000Z,10.07
2023-04-15T23:52:04.225Z,12.38
2023-04-15T23:54:31.104Z,10.57
2023-04-15T23:56:57.904Z,11.05
2023-04-15T23:59:24.743Z,10.90
